Las Vegas, Nevada
Traffic Map
Current Weather Conditions
Las Vegas, Nevada
Few Clouds
Few Clouds

Feels Like: 6°
Wind Chill: Ceiling: Unl
Heat Index: Visibility: 10mi
Dew Point: -11° Wind: 10mph
Humidity: 24% Direction: 70° (ENE)
Pressure: 30.11in Gusts: 0mph
Raw Report DataKLAS 250356Z 07009KT 10SM FEW250 09/M11 A3011 RMK AO2 SLP199 T00891111
Traffic Incident Summary
Active as of:
Severity:
Category:
InformationThere was an issue retrieving the traffic information for this location. Please try a different location or try again shortly.
Advertisements
Track Severe Weather on mobile